全部
Yorketown Airport (Yorketown Southern Australia) YYOR 天氣
There is no TAF data available at YYOR or any nearby airports.
There is no METAR data available at YYOR. Showing METAR data for YMIN (19 mi N).
XML近期METAR歷史資料(YYOR無資料)
| Date | Time (ACST) | Flight Rules | Wind Dir. | Speed | Type | Height AGL (ft) | Visibility | Temp (°C) | Temp (°F) | Dew Point (°C) | Dew Point (°F) | Rel. Humid. | Pressure | Density Altitude | Remarks |
|---|---|---|---|---|---|---|---|---|---|---|---|---|---|---|---|
| 04-五月 | 23:30 | n/a | 200° | 5 kt | Missing | 11° | 51° | 9° | 48° | 87% | 1021 mb | -598 ft | |||
| 04-五月 | 22:30 | n/a | 190° | 5 kt | Missing | 11° | 51° | 9° | 48° | 87% | 1020 mb | -569 ft | |||
| 04-五月 | 21:30 | n/a | 210° | 7 kt | Missing | 12° | 53° | 10° | 50° | 88% | 1020 mb | -449 ft | |||
| 04-五月 | 20:30 | n/a | 220° | 6 kt | Missing | 12° | 53° | 9° | 48° | 82% | 1020 mb | -449 ft | |||
| 04-五月 | 19:30 | n/a | 240° | 9 kt | Missing | 14° | 57° | 11° | 51° | 82% | 1019 mb | -179 ft | |||
| 04-五月 | 18:30 | n/a | 230° | 12 kt | Missing | 15° | 59° | 10° | 50° | 72% | 1018 mb | -30 ft | |||
| 04-五月 | 17:30 | n/a | 260° | 10 kt | Missing | 16° | 60° | 11° | 51° | 72% | 1017 mb | 120 ft | |||
| 04-五月 | 16:30 | n/a | 250° | 17 kt | Missing | 18° | 64° | 10° | 50° | 59% | 1016 mb | 390 ft | |||
| 04-五月 | 15:30 | n/a | 260° | 18 kt | Missing | 18° | 64° | 11° | 51° | 64% | 1016 mb | 390 ft | |||
| 04-五月 | 14:30 | n/a | 260° | 19 kt | Missing | 18° | 64° | 11° | 51° | 64% | 1015 mb | 419 ft | |||
| 04-五月 | 13:30 | n/a | 250° | 17 kt | Missing | 19° | 66° | 12° | 53° | 64% | 1015 mb | 539 ft | |||
| 04-五月 | 12:30 | n/a | 240° | 20 kt | Missing | 19° | 66° | 12° | 53° | 64% | 1015 mb | 539 ft | |||
| 04-五月 | 11:30 | n/a | 240° | 19 kt | Missing | 18° | 64° | 12° | 53° | 68% | 1015 mb | 419 ft | |||
| 04-五月 | 10:30 | n/a | 230° | 18 kt | Missing | 18° | 64° | 12° | 53° | 68% | 1015 mb | 419 ft | |||
| 04-五月 | 09:30 | n/a | 240° | 16 kt | Missing | 17° | 62° | 12° | 53° | 72% | 1014 mb | 329 ft | |||
| 04-五月 | 08:30 | n/a | 240° | 12 kt | Missing | 16° | 60° | 13° | 55° | 82% | 1014 mb | 209 ft | |||
| 04-五月 | 07:30 | n/a | 250° | 13 kt | Missing | 14° | 57° | 12° | 53° | 88% | 1013 mb | -2 ft | |||
| 04-五月 | 06:30 | n/a | 240° | 11 kt | Missing | 14° | 57° | 12° | 53° | 88% | 1012 mb | 28 ft | |||
| 04-五月 | 05:30 | n/a | 240° | 19 kt | Missing | 14° | 57° | 12° | 53° | 88% | 1011 mb | 57 ft | |||
| 04-五月 | 04:30 | n/a | 260° | 17 kt | Missing | 15° | 59° | 12° | 53° | 82% | 1011 mb | 177 ft | |||
| 04-五月 | 03:30 | n/a | 270° | 21 kt | Missing | 15° | 59° | 12° | 53° | 82% | 1011 mb | 177 ft | |||
| 04-五月 | 02:30 | n/a | 280° | 22 kt | Missing | 15° | 59° | 11° | 51° | 77% | 1011 mb | 177 ft | |||
| 04-五月 | 01:30 | n/a | 290° | 22 kt | Missing | 14° | 57° | 11° | 51° | 82% | 1011 mb | 57 ft | |||
| 04-五月 | 00:30 | n/a | 300° | 21 kt | Missing | 14° | 57° | 12° | 53° | 88% | 1011 mb | 57 ft |
登入
| 您的瀏覽器不支援. 升級您的瀏覽器 |
